Terminal Aerodrome Forecast
Issued by NWS Springfield, MO

Home | Current Version | Previous Version | Text Only | Print | Product List | Glossary On
Versions: 1 2 3 4 5 6 7 8 9 10 11 12 13 14
217
FTUS43 KSGF 140802 AAA
TAFSGF
TAF AMD
KSGF 140802Z 1408/1506 14015G23KT P6SM OVC045
     FM141000 14017G24KT P6SM OVC020
      TEMPO 1410/1413 4SM FZRAPL BR BKN012 OVC020
     FM141300 14014G20KT 3SM -FZRADZ BKN008 OVC012
     FM141700 15008KT P6SM OVC008
     FM142100 18004KT P6SM OVC010=

USA.gov is the U.S. government's official web portal to all federal, state and local government web resources and services.